sensor_id;sensor_type;location;lat;lon;timestamp;temperature;humidity
10175;DHT22;18221;38.704;0.152;2023-12-22T00:02:13;13.10;99.90
10175;DHT22;18221;38.704;0.152;2023-12-22T00:04:41;13.00;99.90
10175;DHT22;18221;38.704;0.152;2023-12-22T00:07:09;12.90;99.90
10175;DHT22;18221;38.704;0.152;2023-12-22T00:09:37;12.90;99.90
10175;DHT22;18221;38.704;0.152;2023-12-22T00:12:05;12.80;99.90
10175;DHT22;18221;38.704;0.152;2023-12-22T00:14:35;12.90;99.90
10175;DHT22;18221;38.704;0.152;2023-12-22T00:17:03;12.80;99.90
10175;DHT22;18221;38.704;0.152;2023-12-22T00:19:31;12.90;99.90
10175;DHT22;18221;38.704;0.152;2023-12-22T00:21:59;12.90;99.90
10175;DHT22;18221;38.704;0.152;2023-12-22T00:24:29;12.90;99.90
10175;DHT22;18221;38.704;0.152;2023-12-22T00:26:57;12.80;99.90
10175;DHT22;18221;38.704;0.152;2023-12-22T00:29:25;12.80;99.90
10175;DHT22;18221;38.704;0.152;2023-12-22T00:31:55;12.90;99.90
10175;DHT22;18221;38.704;0.152;2023-12-22T00:34:23;12.90;99.90
10175;DHT22;18221;38.704;0.152;2023-12-22T00:36:51;13.00;99.90
10175;DHT22;18221;38.704;0.152;2023-12-22T00:39:20;13.10;99.90
10175;DHT22;18221;38.704;0.152;2023-12-22T00:41:48;13.10;99.90
10175;DHT22;18221;38.704;0.152;2023-12-22T00:44:16;13.10;99.90
10175;DHT22;18221;38.704;0.152;2023-12-22T00:46:44;13.10;99.90
10175;DHT22;18221;38.704;0.152;2023-12-22T00:49:14;13.10;99.90
10175;DHT22;18221;38.704;0.152;2023-12-22T01:03:05;13.00;99.90
10175;DHT22;18221;38.704;0.152;2023-12-22T01:05:34;12.90;99.90
10175;DHT22;18221;38.704;0.152;2023-12-22T01:08:03;12.90;99.90
10175;DHT22;18221;38.704;0.152;2023-12-22T01:10:31;12.80;99.90
10175;DHT22;18221;38.704;0.152;2023-12-22T01:12:59;12.70;99.90
10175;DHT22;18221;38.704;0.152;2023-12-22T01:15:29;12.70;99.90
10175;DHT22;18221;38.704;0.152;2023-12-22T01:18:00;12.70;99.90
10175;DHT22;18221;38.704;0.152;2023-12-22T01:20:28;12.70;99.90
10175;DHT22;18221;38.704;0.152;2023-12-22T01:22:58;12.70;99.90
10175;DHT22;18221;38.704;0.152;2023-12-22T01:25:26;12.70;99.90
10175;DHT22;18221;38.704;0.152;2023-12-22T01:27:55;12.70;99.90
10175;DHT22;18221;38.704;0.152;2023-12-22T01:30:23;12.70;99.90
10175;DHT22;18221;38.704;0.152;2023-12-22T01:32:51;12.70;99.90
10175;DHT22;18221;38.704;0.152;2023-12-22T01:35:19;12.70;99.90
10175;DHT22;18221;38.704;0.152;2023-12-22T01:37:47;12.70;99.90
10175;DHT22;18221;38.704;0.152;2023-12-22T01:40:16;12.70;99.90
10175;DHT22;18221;38.704;0.152;2023-12-22T01:42:44;12.70;99.90
10175;DHT22;18221;38.704;0.152;2023-12-22T01:45:13;12.80;99.90
10175;DHT22;18221;38.704;0.152;2023-12-22T01:47:42;12.80;99.90
10175;DHT22;18221;38.704;0.152;2023-12-22T01:50:12;12.80;99.90
10175;DHT22;18221;38.704;0.152;2023-12-22T01:52:43;12.80;99.90
10175;DHT22;18221;38.704;0.152;2023-12-22T01:55:12;12.90;99.90
10175;DHT22;18221;38.704;0.152;2023-12-22T01:57:45;12.90;99.90
10175;DHT22;18221;38.704;0.152;2023-12-22T02:00:14;12.90;99.90
10175;DHT22;18221;38.704;0.152;2023-12-22T02:02:44;12.80;99.90
10175;DHT22;18221;38.704;0.152;2023-12-22T02:05:12;12.80;99.90
10175;DHT22;18221;38.704;0.152;2023-12-22T02:07:41;12.80;99.90
10175;DHT22;18221;38.704;0.152;2023-12-22T02:10:10;12.80;99.90
10175;DHT22;18221;38.704;0.152;2023-12-22T02:12:38;12.80;99.90
10175;DHT22;18221;38.704;0.152;2023-12-22T02:15:09;12.80;99.90
10175;DHT22;18221;38.704;0.152;2023-12-22T02:17:43;12.80;99.90
10175;DHT22;18221;38.704;0.152;2023-12-22T02:20:17;12.90;99.90
10175;DHT22;18221;38.704;0.152;2023-12-22T02:22:51;13.00;99.90
10175;DHT22;18221;38.704;0.152;2023-12-22T02:25:20;12.90;99.90
10175;DHT22;18221;38.704;0.152;2023-12-22T02:27:49;12.90;99.90
10175;DHT22;18221;38.704;0.152;2023-12-22T02:30:25;12.90;99.90
10175;DHT22;18221;38.704;0.152;2023-12-22T02:33:00;12.90;99.90
10175;DHT22;18221;38.704;0.152;2023-12-22T02:35:34;12.80;99.90
10175;DHT22;18221;38.704;0.152;2023-12-22T02:38:09;12.60;99.90
10175;DHT22;18221;38.704;0.152;2023-12-22T02:40:39;12.70;99.90
10175;DHT22;18221;38.704;0.152;2023-12-22T02:43:08;12.70;99.90
10175;DHT22;18221;38.704;0.152;2023-12-22T02:45:37;12.70;99.90
10175;DHT22;18221;38.704;0.152;2023-12-22T02:48:06;12.80;99.90
10175;DHT22;18221;38.704;0.152;2023-12-22T02:50:34;12.70;99.90
10175;DHT22;18221;38.704;0.152;2023-12-22T02:53:02;12.70;99.90
10175;DHT22;18221;38.704;0.152;2023-12-22T02:55:32;12.70;99.90
10175;DHT22;18221;38.704;0.152;2023-12-22T02:58:00;12.70;99.90
10175;DHT22;18221;38.704;0.152;2023-12-22T03:00:28;12.70;99.90
10175;DHT22;18221;38.704;0.152;2023-12-22T03:02:56;12.70;99.90
10175;DHT22;18221;38.704;0.152;2023-12-22T03:05:24;12.70;99.90
10175;DHT22;18221;38.704;0.152;2023-12-22T03:07:52;12.70;99.90
10175;DHT22;18221;38.704;0.152;2023-12-22T03:10:20;12.70;99.90
10175;DHT22;18221;38.704;0.152;2023-12-22T03:12:49;12.70;99.90
10175;DHT22;18221;38.704;0.152;2023-12-22T03:15:17;12.70;99.90
10175;DHT22;18221;38.704;0.152;2023-12-22T03:17:45;12.70;99.90
10175;DHT22;18221;38.704;0.152;2023-12-22T03:20:13;14.40;99.90
10175;DHT22;18221;38.704;0.152;2023-12-22T03:22:43;12.70;99.90
10175;DHT22;18221;38.704;0.152;2023-12-22T03:25:11;12.70;99.90
10175;DHT22;18221;38.704;0.152;2023-12-22T03:27:39;12.70;99.90
10175;DHT22;18221;38.704;0.152;2023-12-22T03:30:10;12.70;99.90
10175;DHT22;18221;38.704;0.152;2023-12-22T03:32:39;12.70;99.90
10175;DHT22;18221;38.704;0.152;2023-12-22T03:35:08;12.70;99.90
10175;DHT22;18221;38.704;0.152;2023-12-22T03:37:37;12.70;99.90
10175;DHT22;18221;38.704;0.152;2023-12-22T03:40:06;12.70;99.90
10175;DHT22;18221;38.704;0.152;2023-12-22T03:42:35;12.70;99.90
10175;DHT22;18221;38.704;0.152;2023-12-22T03:45:04;12.70;99.90
10175;DHT22;18221;38.704;0.152;2023-12-22T03:47:34;12.70;99.90
10175;DHT22;18221;38.704;0.152;2023-12-22T03:50:02;12.70;99.90
10175;DHT22;18221;38.704;0.152;2023-12-22T03:52:31;12.80;99.90
10175;DHT22;18221;38.704;0.152;2023-12-22T03:54:59;12.80;99.90
10175;DHT22;18221;38.704;0.152;2023-12-22T03:57:26;12.80;99.90
10175;DHT22;18221;38.704;0.152;2023-12-22T03:59:54;12.80;99.90
10175;DHT22;18221;38.704;0.152;2023-12-22T04:02:22;12.80;99.90
10175;DHT22;18221;38.704;0.152;2023-12-22T04:04:52;12.80;99.90
10175;DHT22;18221;38.704;0.152;2023-12-22T04:07:20;12.80;99.90
10175;DHT22;18221;38.704;0.152;2023-12-22T04:09:48;12.80;99.90
10175;DHT22;18221;38.704;0.152;2023-12-22T04:12:16;12.80;99.90
10175;DHT22;18221;38.704;0.152;2023-12-22T04:14:44;12.80;99.90
10175;DHT22;18221;38.704;0.152;2023-12-22T04:17:12;12.80;99.90
10175;DHT22;18221;38.704;0.152;2023-12-22T04:19:40;12.80;99.90
10175;DHT22;18221;38.704;0.152;2023-12-22T04:22:09;12.80;99.90
10175;DHT22;18221;38.704;0.152;2023-12-22T04:24:37;12.80;99.90
10175;DHT22;18221;38.704;0.152;2023-12-22T04:27:05;12.80;99.90
10175;DHT22;18221;38.704;0.152;2023-12-22T04:29:33;12.80;99.90
10175;DHT22;18221;38.704;0.152;2023-12-22T04:32:02;12.80;99.90
10175;DHT22;18221;38.704;0.152;2023-12-22T04:34:30;12.70;99.90
10175;DHT22;18221;38.704;0.152;2023-12-22T04:36:58;12.70;99.90
10175;DHT22;18221;38.704;0.152;2023-12-22T04:39:28;12.70;99.90
10175;DHT22;18221;38.704;0.152;2023-12-22T04:41:56;12.70;99.90
10175;DHT22;18221;38.704;0.152;2023-12-22T04:44:24;12.70;99.90
10175;DHT22;18221;38.704;0.152;2023-12-22T04:46:52;12.60;99.90
10175;DHT22;18221;38.704;0.152;2023-12-22T04:49:20;12.70;99.90
10175;DHT22;18221;38.704;0.152;2023-12-22T04:51:48;12.70;99.90
10175;DHT22;18221;38.704;0.152;2023-12-22T04:54:16;12.70;99.90
10175;DHT22;18221;38.704;0.152;2023-12-22T04:56:45;12.70;99.90
10175;DHT22;18221;38.704;0.152;2023-12-22T04:59:13;12.70;99.90
10175;DHT22;18221;38.704;0.152;2023-12-22T05:01:42;12.70;99.90
10175;DHT22;18221;38.704;0.152;2023-12-22T05:04:11;11.50;99.90
10175;DHT22;18221;38.704;0.152;2023-12-22T05:06:39;12.60;99.90
10175;DHT22;18221;38.704;0.152;2023-12-22T05:09:07;12.60;99.90
10175;DHT22;18221;38.704;0.152;2023-12-22T05:11:36;12.60;99.90
10175;DHT22;18221;38.704;0.152;2023-12-22T05:14:06;12.60;99.90
10175;DHT22;18221;38.704;0.152;2023-12-22T05:16:34;12.60;99.90
10175;DHT22;18221;38.704;0.152;2023-12-22T05:19:02;12.50;99.90
10175;DHT22;18221;38.704;0.152;2023-12-22T05:21:30;12.50;99.90
10175;DHT22;18221;38.704;0.152;2023-12-22T05:23:59;12.60;99.90
10175;DHT22;18221;38.704;0.152;2023-12-22T05:26:28;12.60;99.90
10175;DHT22;18221;38.704;0.152;2023-12-22T05:28:56;12.60;99.90
10175;DHT22;18221;38.704;0.152;2023-12-22T05:31:26;12.60;99.90
10175;DHT22;18221;38.704;0.152;2023-12-22T05:33:54;12.60;99.90
10175;DHT22;18221;38.704;0.152;2023-12-22T05:36:23;12.70;99.90
10175;DHT22;18221;38.704;0.152;2023-12-22T05:38:52;12.80;99.90
10175;DHT22;18221;38.704;0.152;2023-12-22T05:41:20;12.80;99.90
10175;DHT22;18221;38.704;0.152;2023-12-22T05:43:48;12.80;99.90
10175;DHT22;18221;38.704;0.152;2023-12-22T05:46:17;12.80;99.90
10175;DHT22;18221;38.704;0.152;2023-12-22T05:48:47;12.90;99.90
10175;DHT22;18221;38.704;0.152;2023-12-22T05:51:15;12.80;99.90
10175;DHT22;18221;38.704;0.152;2023-12-22T05:53:43;12.90;99.90
10175;DHT22;18221;38.704;0.152;2023-12-22T05:56:17;12.90;99.90
10175;DHT22;18221;38.704;0.152;2023-12-22T05:58:48;12.90;99.90
10175;DHT22;18221;38.704;0.152;2023-12-22T06:01:17;13.00;99.90
10175;DHT22;18221;38.704;0.152;2023-12-22T06:03:47;13.00;99.90
10175;DHT22;18221;38.704;0.152;2023-12-22T06:06:15;13.00;99.90
10175;DHT22;18221;38.704;0.152;2023-12-22T06:08:44;13.10;99.90
10175;DHT22;18221;38.704;0.152;2023-12-22T06:11:13;13.10;99.90
10175;DHT22;18221;38.704;0.152;2023-12-22T06:13:41;13.20;99.90
10175;DHT22;18221;38.704;0.152;2023-12-22T06:16:12;13.20;99.90
10175;DHT22;18221;38.704;0.152;2023-12-22T06:18:41;13.20;99.90
10175;DHT22;18221;38.704;0.152;2023-12-22T06:21:11;13.20;99.90
10175;DHT22;18221;38.704;0.152;2023-12-22T06:23:41;13.20;99.90
10175;DHT22;18221;38.704;0.152;2023-12-22T06:26:09;13.20;99.90
10175;DHT22;18221;38.704;0.152;2023-12-22T06:28:38;13.30;99.90
10175;DHT22;18221;38.704;0.152;2023-12-22T06:31:07;13.40;99.90
10175;DHT22;18221;38.704;0.152;2023-12-22T06:33:35;13.50;99.90
10175;DHT22;18221;38.704;0.152;2023-12-22T06:36:03;13.50;99.90
10175;DHT22;18221;38.704;0.152;2023-12-22T06:38:34;13.60;99.90
10175;DHT22;18221;38.704;0.152;2023-12-22T06:41:02;13.60;99.90
10175;DHT22;18221;38.704;0.152;2023-12-22T06:43:30;13.60;99.90
10175;DHT22;18221;38.704;0.152;2023-12-22T06:45:59;13.60;99.90
10175;DHT22;18221;38.704;0.152;2023-12-22T06:48:27;13.60;99.90
10175;DHT22;18221;38.704;0.152;2023-12-22T06:50:56;13.60;99.90
10175;DHT22;18221;38.704;0.152;2023-12-22T06:53:24;13.50;99.90
10175;DHT22;18221;38.704;0.152;2023-12-22T06:55:54;13.50;99.90
10175;DHT22;18221;38.704;0.152;2023-12-22T06:58:22;13.60;99.90
10175;DHT22;18221;38.704;0.152;2023-12-22T07:00:51;13.60;99.90
10175;DHT22;18221;38.704;0.152;2023-12-22T07:03:19;13.70;99.90
10175;DHT22;18221;38.704;0.152;2023-12-22T07:05:47;13.70;99.90
10175;DHT22;18221;38.704;0.152;2023-12-22T07:08:16;13.70;99.90
10175;DHT22;18221;38.704;0.152;2023-12-22T07:10:44;13.70;99.90
10175;DHT22;18221;38.704;0.152;2023-12-22T07:13:14;13.70;99.90
10175;DHT22;18221;38.704;0.152;2023-12-22T07:15:42;13.60;99.90
10175;DHT22;18221;38.704;0.152;2023-12-22T07:18:10;13.60;99.90
10175;DHT22;18221;38.704;0.152;2023-12-22T07:20:39;13.60;99.90
10175;DHT22;18221;38.704;0.152;2023-12-22T07:23:07;13.60;99.90
10175;DHT22;18221;38.704;0.152;2023-12-22T07:25:37;13.60;99.90
10175;DHT22;18221;38.704;0.152;2023-12-22T07:28:06;13.60;99.90
10175;DHT22;18221;38.704;0.152;2023-12-22T07:30:35;13.60;99.90
10175;DHT22;18221;38.704;0.152;2023-12-22T07:33:04;13.50;99.90
10175;DHT22;18221;38.704;0.152;2023-12-22T07:35:33;13.50;99.90
10175;DHT22;18221;38.704;0.152;2023-12-22T07:38:01;13.40;99.90
10175;DHT22;18221;38.704;0.152;2023-12-22T07:40:29;13.40;99.90
10175;DHT22;18221;38.704;0.152;2023-12-22T07:42:58;13.40;99.90
10175;DHT22;18221;38.704;0.152;2023-12-22T07:45:26;13.40;99.90
10175;DHT22;18221;38.704;0.152;2023-12-22T07:47:56;13.40;99.90
10175;DHT22;18221;38.704;0.152;2023-12-22T07:50:24;13.40;99.90
10175;DHT22;18221;38.704;0.152;2023-12-22T07:52:53;13.40;99.90
10175;DHT22;18221;38.704;0.152;2023-12-22T07:55:21;13.50;99.90
10175;DHT22;18221;38.704;0.152;2023-12-22T07:57:49;13.50;99.90
10175;DHT22;18221;38.704;0.152;2023-12-22T08:00:18;13.50;99.90
10175;DHT22;18221;38.704;0.152;2023-12-22T08:02:46;13.60;99.90
10175;DHT22;18221;38.704;0.152;2023-12-22T08:05:15;13.60;99.90
10175;DHT22;18221;38.704;0.152;2023-12-22T08:07:44;13.70;99.90
10175;DHT22;18221;38.704;0.152;2023-12-22T08:10:12;13.70;99.90
10175;DHT22;18221;38.704;0.152;2023-12-22T08:12:41;13.70;99.90
10175;DHT22;18221;38.704;0.152;2023-12-22T08:15:09;13.70;99.90
10175;DHT22;18221;38.704;0.152;2023-12-22T08:17:45;13.70;99.90
10175;DHT22;18221;38.704;0.152;2023-12-22T08:20:18;13.70;99.90
10175;DHT22;18221;38.704;0.152;2023-12-22T08:22:46;13.70;99.90
10175;DHT22;18221;38.704;0.152;2023-12-22T08:25:15;13.70;99.90
10175;DHT22;18221;38.704;0.152;2023-12-22T08:27:45;13.70;99.90
10175;DHT22;18221;38.704;0.152;2023-12-22T08:30:14;13.80;99.90
10175;DHT22;18221;38.704;0.152;2023-12-22T08:32:42;13.80;99.90
10175;DHT22;18221;38.704;0.152;2023-12-22T08:35:11;13.70;99.90
10175;DHT22;18221;38.704;0.152;2023-12-22T08:37:40;13.70;99.90
10175;DHT22;18221;38.704;0.152;2023-12-22T08:40:08;13.80;99.90
10175;DHT22;18221;38.704;0.152;2023-12-22T08:42:37;13.80;99.90
10175;DHT22;18221;38.704;0.152;2023-12-22T08:45:06;13.80;99.90
10175;DHT22;18221;38.704;0.152;2023-12-22T08:47:35;13.80;99.90
10175;DHT22;18221;38.704;0.152;2023-12-22T08:50:03;13.80;99.90
10175;DHT22;18221;38.704;0.152;2023-12-22T08:52:34;13.80;99.90
10175;DHT22;18221;38.704;0.152;2023-12-22T08:55:04;13.90;99.90
10175;DHT22;18221;38.704;0.152;2023-12-22T08:57:33;13.90;99.90
10175;DHT22;18221;38.704;0.152;2023-12-22T09:00:01;13.90;99.90
10175;DHT22;18221;38.704;0.152;2023-12-22T09:02:29;14.00;99.90
10175;DHT22;18221;38.704;0.152;2023-12-22T09:04:57;14.00;99.90
10175;DHT22;18221;38.704;0.152;2023-12-22T09:07:25;14.00;99.90
10175;DHT22;18221;38.704;0.152;2023-12-22T09:09:53;14.00;99.90
10175;DHT22;18221;38.704;0.152;2023-12-22T09:12:22;14.00;99.90
10175;DHT22;18221;38.704;0.152;2023-12-22T09:14:50;14.10;99.90
10175;DHT22;18221;38.704;0.152;2023-12-22T09:17:19;14.10;99.90
10175;DHT22;18221;38.704;0.152;2023-12-22T09:19:47;14.10;99.90
10175;DHT22;18221;38.704;0.152;2023-12-22T09:22:15;14.10;99.90
10175;DHT22;18221;38.704;0.152;2023-12-22T09:24:43;14.20;99.90
10175;DHT22;18221;38.704;0.152;2023-12-22T09:27:11;14.20;99.90
10175;DHT22;18221;38.704;0.152;2023-12-22T09:29:40;14.20;99.90
10175;DHT22;18221;38.704;0.152;2023-12-22T09:32:08;14.20;99.90
10175;DHT22;18221;38.704;0.152;2023-12-22T09:34:36;14.20;99.90
10175;DHT22;18221;38.704;0.152;2023-12-22T09:37:05;14.30;99.90
10175;DHT22;18221;38.704;0.152;2023-12-22T09:39:33;14.30;99.90
10175;DHT22;18221;38.704;0.152;2023-12-22T09:42:01;14.40;99.90
10175;DHT22;18221;38.704;0.152;2023-12-22T09:44:32;14.40;99.90
10175;DHT22;18221;38.704;0.152;2023-12-22T09:47:04;14.40;99.90
10175;DHT22;18221;38.704;0.152;2023-12-22T09:49:33;14.40;99.90
10175;DHT22;18221;38.704;0.152;2023-12-22T09:52:02;14.50;99.90
10175;DHT22;18221;38.704;0.152;2023-12-22T09:54:32;14.50;99.90
10175;DHT22;18221;38.704;0.152;2023-12-22T09:57:01;14.50;99.90
10175;DHT22;18221;38.704;0.152;2023-12-22T09:59:30;14.50;99.90
10175;DHT22;18221;38.704;0.152;2023-12-22T10:02:02;14.60;99.90
10175;DHT22;18221;38.704;0.152;2023-12-22T10:04:34;14.60;99.90
10175;DHT22;18221;38.704;0.152;2023-12-22T10:07:03;14.60;99.90
10175;DHT22;18221;38.704;0.152;2023-12-22T10:09:33;14.60;99.90
10175;DHT22;18221;38.704;0.152;2023-12-22T10:12:03;14.70;99.90
10175;DHT22;18221;38.704;0.152;2023-12-22T10:14:34;14.70;99.90
10175;DHT22;18221;38.704;0.152;2023-12-22T10:17:05;14.70;99.90
10175;DHT22;18221;38.704;0.152;2023-12-22T10:19:33;14.80;99.90
10175;DHT22;18221;38.704;0.152;2023-12-22T10:22:01;14.90;99.90
10175;DHT22;18221;38.704;0.152;2023-12-22T10:24:40;14.90;99.90
10175;DHT22;18221;38.704;0.152;2023-12-22T10:27:14;15.00;99.90
10175;DHT22;18221;38.704;0.152;2023-12-22T10:29:48;15.00;99.90
10175;DHT22;18221;38.704;0.152;2023-12-22T10:32:18;15.10;99.90
10175;DHT22;18221;38.704;0.152;2023-12-22T10:34:47;15.10;99.90
10175;DHT22;18221;38.704;0.152;2023-12-22T10:37:16;15.20;99.90
10175;DHT22;18221;38.704;0.152;2023-12-22T10:39:45;15.20;99.90
10175;DHT22;18221;38.704;0.152;2023-12-22T10:42:15;15.30;99.90
10175;DHT22;18221;38.704;0.152;2023-12-22T10:44:44;15.30;99.90
10175;DHT22;18221;38.704;0.152;2023-12-22T10:47:13;15.30;99.90
10175;DHT22;18221;38.704;0.152;2023-12-22T10:49:46;15.40;99.90
10175;DHT22;18221;38.704;0.152;2023-12-22T10:52:15;15.50;99.90
10175;DHT22;18221;38.704;0.152;2023-12-22T10:54:44;15.50;99.90
10175;DHT22;18221;38.704;0.152;2023-12-22T10:57:13;15.60;99.90
10175;DHT22;18221;38.704;0.152;2023-12-22T10:59:46;15.60;99.90
10175;DHT22;18221;38.704;0.152;2023-12-22T11:02:16;15.60;99.90
10175;DHT22;18221;38.704;0.152;2023-12-22T11:04:55;15.70;99.90
10175;DHT22;18221;38.704;0.152;2023-12-22T11:07:26;15.70;99.90
10175;DHT22;18221;38.704;0.152;2023-12-22T11:09:57;15.70;99.90
10175;DHT22;18221;38.704;0.152;2023-12-22T11:12:30;15.70;99.90
10175;DHT22;18221;38.704;0.152;2023-12-22T11:15:01;15.80;99.90
10175;DHT22;18221;38.704;0.152;2023-12-22T11:17:32;15.90;99.90
10175;DHT22;18221;38.704;0.152;2023-12-22T11:20:03;15.90;99.90
10175;DHT22;18221;38.704;0.152;2023-12-22T11:22:34;15.90;99.90
10175;DHT22;18221;38.704;0.152;2023-12-22T11:25:05;16.00;99.90
10175;DHT22;18221;38.704;0.152;2023-12-22T11:27:37;16.00;99.90
10175;DHT22;18221;38.704;0.152;2023-12-22T11:30:08;16.10;99.90
10175;DHT22;18221;38.704;0.152;2023-12-22T11:32:39;16.00;99.90
10175;DHT22;18221;38.704;0.152;2023-12-22T11:35:09;16.10;99.90
10175;DHT22;18221;38.704;0.152;2023-12-22T11:37:39;16.10;99.90
10175;DHT22;18221;38.704;0.152;2023-12-22T11:40:10;16.10;99.90
10175;DHT22;18221;38.704;0.152;2023-12-22T11:42:41;16.10;99.90
10175;DHT22;18221;38.704;0.152;2023-12-22T11:45:11;16.10;99.90
10175;DHT22;18221;38.704;0.152;2023-12-22T11:47:41;16.10;99.90
10175;DHT22;18221;38.704;0.152;2023-12-22T11:50:12;16.30;99.90
10175;DHT22;18221;38.704;0.152;2023-12-22T11:52:54;16.30;99.90
10175;DHT22;18221;38.704;0.152;2023-12-22T11:55:56;16.40;99.90
10175;DHT22;18221;38.704;0.152;2023-12-22T11:58:37;16.40;99.90
10175;DHT22;18221;38.704;0.152;2023-12-22T12:01:09;16.50;99.90
10175;DHT22;18221;38.704;0.152;2023-12-22T12:03:40;16.50;99.90
10175;DHT22;18221;38.704;0.152;2023-12-22T12:06:32;16.60;99.90
10175;DHT22;18221;38.704;0.152;2023-12-22T12:09:06;16.60;99.90
10175;DHT22;18221;38.704;0.152;2023-12-22T12:12:09;16.60;99.90
10175;DHT22;18221;38.704;0.152;2023-12-22T12:14:41;16.30;99.90
10175;DHT22;18221;38.704;0.152;2023-12-22T12:17:11;16.70;99.90
10175;DHT22;18221;38.704;0.152;2023-12-22T12:19:44;16.70;99.90
10175;DHT22;18221;38.704;0.152;2023-12-22T12:22:14;16.80;99.90
10175;DHT22;18221;38.704;0.152;2023-12-22T12:24:42;16.90;99.90
10175;DHT22;18221;38.704;0.152;2023-12-22T12:27:11;16.90;99.90
10175;DHT22;18221;38.704;0.152;2023-12-22T12:29:45;16.80;99.90
10175;DHT22;18221;38.704;0.152;2023-12-22T12:32:15;16.90;99.90
10175;DHT22;18221;38.704;0.152;2023-12-22T12:34:43;17.00;99.90
10175;DHT22;18221;38.704;0.152;2023-12-22T12:37:13;17.10;99.90
10175;DHT22;18221;38.704;0.152;2023-12-22T12:39:41;15.40;99.90
10175;DHT22;18221;38.704;0.152;2023-12-22T12:42:13;17.20;99.90
10175;DHT22;18221;38.704;0.152;2023-12-22T12:44:44;17.30;99.90
10175;DHT22;18221;38.704;0.152;2023-12-22T12:47:15;17.40;99.90
10175;DHT22;18221;38.704;0.152;2023-12-22T12:49:43;17.40;99.90
10175;DHT22;18221;38.704;0.152;2023-12-22T12:52:16;17.40;99.90
10175;DHT22;18221;38.704;0.152;2023-12-22T12:54:45;17.40;99.90
10175;DHT22;18221;38.704;0.152;2023-12-22T12:57:16;17.40;99.90
10175;DHT22;18221;38.704;0.152;2023-12-22T12:59:47;16.10;99.90
10175;DHT22;18221;38.704;0.152;2023-12-22T13:02:17;17.60;99.90
10175;DHT22;18221;38.704;0.152;2023-12-22T13:04:46;17.70;99.90
10175;DHT22;18221;38.704;0.152;2023-12-22T13:07:24;17.80;99.90
10175;DHT22;18221;38.704;0.152;2023-12-22T13:09:52;17.60;99.90
10175;DHT22;18221;38.704;0.152;2023-12-22T13:12:23;17.60;99.90
10175;DHT22;18221;38.704;0.152;2023-12-22T13:14:52;17.60;99.90
10175;DHT22;18221;38.704;0.152;2023-12-22T13:17:20;17.60;99.90
10175;DHT22;18221;38.704;0.152;2023-12-22T13:19:48;17.70;99.90
10175;DHT22;18221;38.704;0.152;2023-12-22T13:22:18;17.70;99.90
10175;DHT22;18221;38.704;0.152;2023-12-22T13:24:55;17.70;99.90
10175;DHT22;18221;38.704;0.152;2023-12-22T13:27:23;17.80;99.90
10175;DHT22;18221;38.704;0.152;2023-12-22T13:29:51;17.70;99.90
10175;DHT22;18221;38.704;0.152;2023-12-22T13:32:21;17.60;99.90
10175;DHT22;18221;38.704;0.152;2023-12-22T13:34:51;17.60;99.90
10175;DHT22;18221;38.704;0.152;2023-12-22T13:37:22;17.70;99.90
10175;DHT22;18221;38.704;0.152;2023-12-22T13:39:52;17.80;99.90
10175;DHT22;18221;38.704;0.152;2023-12-22T13:42:20;17.70;99.90
10175;DHT22;18221;38.704;0.152;2023-12-22T13:44:49;17.60;99.90
10175;DHT22;18221;38.704;0.152;2023-12-22T13:47:18;17.60;99.90
10175;DHT22;18221;38.704;0.152;2023-12-22T13:49:46;17.60;99.90
10175;DHT22;18221;38.704;0.152;2023-12-22T13:52:30;17.60;99.90
10175;DHT22;18221;38.704;0.152;2023-12-22T13:55:01;17.60;99.90
10175;DHT22;18221;38.704;0.152;2023-12-22T13:57:37;17.60;99.90
10175;DHT22;18221;38.704;0.152;2023-12-22T14:00:26;17.70;99.90
10175;DHT22;18221;38.704;0.152;2023-12-22T14:02:56;17.60;99.90
10175;DHT22;18221;38.704;0.152;2023-12-22T14:05:24;17.70;99.90
10175;DHT22;18221;38.704;0.152;2023-12-22T14:07:54;17.90;99.90
10175;DHT22;18221;38.704;0.152;2023-12-22T14:10:22;17.90;99.90
10175;DHT22;18221;38.704;0.152;2023-12-22T14:12:50;18.00;99.90
10175;DHT22;18221;38.704;0.152;2023-12-22T14:15:18;17.90;99.90
10175;DHT22;18221;38.704;0.152;2023-12-22T14:17:46;17.90;99.90
10175;DHT22;18221;38.704;0.152;2023-12-22T14:20:14;17.80;99.90
10175;DHT22;18221;38.704;0.152;2023-12-22T14:22:45;17.70;99.90
10175;DHT22;18221;38.704;0.152;2023-12-22T14:25:15;17.60;99.90
10175;DHT22;18221;38.704;0.152;2023-12-22T14:27:43;17.60;99.90
10175;DHT22;18221;38.704;0.152;2023-12-22T14:30:12;17.60;99.90
10175;DHT22;18221;38.704;0.152;2023-12-22T14:32:41;17.60;99.90
10175;DHT22;18221;38.704;0.152;2023-12-22T14:35:09;17.60;99.90
10175;DHT22;18221;38.704;0.152;2023-12-22T14:37:37;17.50;99.90
10175;DHT22;18221;38.704;0.152;2023-12-22T14:40:06;17.50;99.90
10175;DHT22;18221;38.704;0.152;2023-12-22T14:42:36;17.30;99.90
10175;DHT22;18221;38.704;0.152;2023-12-22T14:45:05;17.30;99.90
10175;DHT22;18221;38.704;0.152;2023-12-22T14:47:34;17.20;99.90
10175;DHT22;18221;38.704;0.152;2023-12-22T14:50:02;17.20;99.90
10175;DHT22;18221;38.704;0.152;2023-12-22T14:52:30;17.20;99.90
10175;DHT22;18221;38.704;0.152;2023-12-22T14:54:59;17.10;99.90
10175;DHT22;18221;38.704;0.152;2023-12-22T14:57:27;17.10;99.90
10175;DHT22;18221;38.704;0.152;2023-12-22T14:59:58;17.10;99.90
10175;DHT22;18221;38.704;0.152;2023-12-22T15:02:26;17.00;99.90
10175;DHT22;18221;38.704;0.152;2023-12-22T15:04:54;16.90;99.90
10175;DHT22;18221;38.704;0.152;2023-12-22T15:07:22;16.80;99.90
10175;DHT22;18221;38.704;0.152;2023-12-22T15:09:50;16.80;99.90
10175;DHT22;18221;38.704;0.152;2023-12-22T15:12:18;16.80;99.90
10175;DHT22;18221;38.704;0.152;2023-12-22T15:14:46;16.70;99.90
10175;DHT22;18221;38.704;0.152;2023-12-22T15:17:16;16.60;99.90
10175;DHT22;18221;38.704;0.152;2023-12-22T15:19:44;16.60;99.90
10175;DHT22;18221;38.704;0.152;2023-12-22T15:22:14;16.50;99.90
10175;DHT22;18221;38.704;0.152;2023-12-22T15:24:43;16.40;99.90
10175;DHT22;18221;38.704;0.152;2023-12-22T15:27:11;16.40;99.90
10175;DHT22;18221;38.704;0.152;2023-12-22T15:29:40;16.20;99.90
10175;DHT22;18221;38.704;0.152;2023-12-22T15:32:08;16.10;99.90
10175;DHT22;18221;38.704;0.152;2023-12-22T15:34:37;16.00;99.90
10175;DHT22;18221;38.704;0.152;2023-12-22T15:37:08;16.00;99.90
10175;DHT22;18221;38.704;0.152;2023-12-22T15:39:35;15.90;99.90
10175;DHT22;18221;38.704;0.152;2023-12-22T15:42:04;15.80;99.90
10175;DHT22;18221;38.704;0.152;2023-12-22T15:44:32;15.70;99.90
10175;DHT22;18221;38.704;0.152;2023-12-22T15:47:00;15.70;99.90
10175;DHT22;18221;38.704;0.152;2023-12-22T15:49:28;15.70;99.90
10175;DHT22;18221;38.704;0.152;2023-12-22T15:51:58;15.70;99.90
10175;DHT22;18221;38.704;0.152;2023-12-22T15:54:26;15.60;99.90
10175;DHT22;18221;38.704;0.152;2023-12-22T15:56:54;15.50;99.90